createdAt,value
2022-12-31T00:03:02.934Z,1.20
2022-12-31T00:08:02.779Z,1.00
2022-12-31T00:13:00.814Z,1.20
2022-12-31T00:17:58.839Z,1.10
2022-12-31T00:22:56.951Z,1.00
2022-12-31T00:27:56.347Z,1.00
2022-12-31T00:32:54.484Z,1.00
2022-12-31T00:37:53.348Z,0.87
2022-12-31T00:42:51.373Z,0.83
2022-12-31T00:47:50.756Z,0.80
2022-12-31T00:52:48.799Z,0.70
2022-12-31T00:57:46.880Z,0.80
2022-12-31T01:02:45.041Z,1.10
2022-12-31T01:07:44.609Z,0.97
2022-12-31T01:12:42.616Z,0.70
2022-12-31T01:17:41.730Z,0.80
2022-12-31T01:22:39.759Z,0.60
2022-12-31T01:27:39.180Z,0.80
2022-12-31T01:32:37.285Z,0.60
2022-12-31T01:37:35.862Z,0.70
2022-12-31T01:42:33.880Z,0.70
2022-12-31T01:47:39.371Z,0.50
2022-12-31T01:52:41.036Z,0.30
2022-12-31T01:57:39.521Z,0.43
2022-12-31T02:02:39.069Z,0.50
2022-12-31T02:07:37.188Z,0.40
2022-12-31T02:12:35.264Z,0.40
2022-12-31T02:17:37.667Z,0.60
2022-12-31T02:22:59.564Z,0.40
2022-12-31T02:28:07.027Z,0.50
2022-12-31T02:33:13.459Z,0.50
2022-12-31T02:38:15.724Z,0.50
2022-12-31T02:43:13.835Z,0.70
2022-12-31T02:48:41.275Z,0.50
2022-12-31T02:54:02.445Z,0.47
2022-12-31T02:59:23.055Z,0.50
2022-12-31T03:04:36.140Z,0.40
2022-12-31T03:09:34.843Z,0.50
2022-12-31T03:14:32.862Z,0.40
2022-12-31T03:19:49.837Z,0.50
2022-12-31T03:25:05.136Z,0.50
2022-12-31T03:30:03.204Z,0.50
2022-12-31T03:35:02.605Z,0.43
2022-12-31T03:40:00.631Z,0.60
2022-12-31T03:44:58.666Z,0.50
2022-12-31T03:49:56.784Z,0.40
2022-12-31T03:54:56.188Z,0.50
2022-12-31T03:59:54.205Z,0.60
2022-12-31T04:04:52.318Z,0.40
2022-12-31T04:09:50.419Z,0.40
2022-12-31T04:14:49.772Z,0.40
2022-12-31T04:19:47.887Z,0.40
2022-12-31T04:24:46.724Z,0.43
2022-12-31T04:29:44.768Z,0.50
2022-12-31T04:34:44.217Z,0.70
2022-12-31T04:39:42.251Z,0.40
2022-12-31T04:44:40.255Z,0.47
2022-12-31T04:49:38.447Z,0.40
2022-12-31T04:54:37.863Z,0.40
2022-12-31T04:59:35.915Z,0.40
2022-12-31T05:04:33.947Z,0.50
2022-12-31T05:09:31.997Z,0.50
2022-12-31T05:14:31.394Z,0.50
2022-12-31T05:19:29.445Z,0.40
2022-12-31T05:24:27.519Z,0.50
2022-12-31T05:29:25.600Z,0.40
2022-12-31T05:34:25.589Z,0.60
2022-12-31T05:39:24.151Z,0.50
2022-12-31T05:44:22.750Z,0.40
2022-12-31T05:49:20.780Z,0.60
2022-12-31T05:54:20.329Z,0.50
2022-12-31T05:59:18.375Z,0.47
2022-12-31T06:04:16.386Z,0.50
2022-12-31T06:09:14.452Z,0.50
2022-12-31T06:14:14.159Z,0.50
2022-12-31T06:19:12.244Z,0.40
2022-12-31T06:24:10.259Z,0.50
2022-12-31T06:29:08.868Z,0.40
2022-12-31T06:34:08.874Z,0.40
2022-12-31T06:39:07.088Z,0.40
2022-12-31T06:44:05.317Z,0.43
2022-12-31T06:49:03.355Z,0.47
2022-12-31T06:54:02.867Z,0.40
2022-12-31T06:59:01.953Z,0.40
2022-12-31T07:04:07.929Z,0.60
2022-12-31T07:09:11.982Z,0.40
2022-12-31T07:14:21.805Z,0.60
2022-12-31T07:19:28.144Z,0.40
2022-12-31T07:24:28.660Z,0.50
2022-12-31T07:29:38.951Z,0.50
2022-12-31T07:34:48.018Z,0.50
2022-12-31T07:39:56.726Z,0.40
2022-12-31T07:45:04.087Z,0.70
2022-12-31T07:50:02.663Z,0.40
2022-12-31T07:55:02.092Z,0.43
2022-12-31T08:00:08.094Z,0.50
2022-12-31T08:05:20.107Z,0.40
2022-12-31T08:10:27.098Z,0.57
2022-12-31T08:15:30.359Z,0.57
2022-12-31T08:20:30.550Z,0.60
2022-12-31T08:25:40.207Z,0.50
2022-12-31T08:30:49.018Z,0.60
2022-12-31T08:35:59.288Z,0.50
2022-12-31T08:41:08.650Z,0.50
2022-12-31T08:46:17.037Z,0.50
2022-12-31T08:51:20.069Z,0.50
2022-12-31T08:56:28.454Z,0.50
2022-12-31T09:01:32.587Z,0.50
2022-12-31T09:06:34.879Z,0.60
2022-12-31T09:11:45.717Z,0.60
2022-12-31T09:16:54.309Z,0.50
2022-12-31T09:21:52.876Z,0.63
2022-12-31T09:27:05.444Z,0.50
2022-12-31T09:32:15.231Z,0.50
2022-12-31T09:37:18.892Z,0.60
2022-12-31T09:42:44.480Z,0.53
2022-12-31T09:48:32.917Z,0.67
2022-12-31T09:53:49.878Z,0.67
2022-12-31T09:58:58.108Z,0.70
2022-12-31T10:04:58.437Z,0.73
2022-12-31T10:10:04.648Z,0.70
2022-12-31T10:15:22.078Z,0.50
2022-12-31T10:20:43.326Z,0.63
2022-12-31T10:25:59.664Z,0.60
2022-12-31T10:31:07.771Z,0.70
2022-12-31T10:36:13.205Z,0.80
2022-12-31T10:41:50.957Z,0.83
2022-12-31T10:47:18.033Z,0.80
2022-12-31T10:52:55.321Z,0.67
2022-12-31T10:58:22.078Z,0.63
2022-12-31T11:04:00.036Z,0.67
2022-12-31T11:09:34.879Z,0.73
2022-12-31T11:14:47.144Z,0.70
2022-12-31T11:19:55.259Z,0.90
2022-12-31T11:25:16.742Z,0.60
2022-12-31T11:30:22.938Z,0.93
2022-12-31T11:35:29.209Z,0.70
2022-12-31T11:40:53.968Z,0.80
2022-12-31T11:46:17.882Z,1.00
2022-12-31T11:51:50.482Z,0.80
2022-12-31T11:56:58.079Z,0.70
2022-12-31T12:02:02.897Z,0.80
2022-12-31T12:07:01.535Z,0.70
2022-12-31T12:12:03.736Z,0.90
2022-12-31T12:17:05.528Z,1.00
2022-12-31T12:22:12.025Z,0.70
2022-12-31T12:27:24.689Z,1.00
2022-12-31T12:32:24.922Z,0.60
2022-12-31T12:37:29.450Z,0.77
2022-12-31T12:42:29.973Z,1.00
2022-12-31T12:47:28.701Z,0.70
2022-12-31T12:52:50.511Z,0.80
2022-12-31T12:58:00.632Z,1.00
2022-12-31T13:03:31.657Z,0.90
2022-12-31T13:08:46.477Z,1.07
2022-12-31T13:13:52.247Z,1.07
2022-12-31T13:18:58.744Z,0.60
2022-12-31T13:24:00.845Z,0.80
2022-12-31T13:29:02.865Z,0.90
2022-12-31T13:34:05.558Z,0.80
2022-12-31T13:39:08.995Z,0.70
2022-12-31T13:44:17.539Z,0.73
2022-12-31T13:49:22.244Z,0.80
2022-12-31T13:54:32.095Z,0.90
2022-12-31T13:59:36.253Z,0.70
2022-12-31T14:04:41.217Z,0.70
2022-12-31T14:09:39.397Z,0.90
2022-12-31T14:14:45.615Z,0.83
2022-12-31T14:19:55.260Z,0.63
2022-12-31T14:24:53.490Z,0.97
2022-12-31T14:29:58.007Z,0.70
2022-12-31T14:35:03.062Z,0.90
2022-12-31T14:40:13.816Z,0.80
2022-12-31T14:45:28.973Z,0.70
2022-12-31T14:50:28.967Z,1.00
2022-12-31T14:55:29.451Z,1.00
2022-12-31T15:00:35.035Z,1.00
2022-12-31T15:05:35.554Z,0.90
2022-12-31T15:10:42.577Z,0.90
2022-12-31T15:16:00.547Z,1.10
2022-12-31T15:21:28.393Z,0.90
2022-12-31T15:26:28.643Z,0.90
2022-12-31T15:31:28.734Z,1.00
2022-12-31T15:36:28.717Z,2.30
2022-12-31T15:41:29.988Z,1.90
2022-12-31T15:46:32.494Z,1.50
2022-12-31T15:51:33.766Z,1.33
2022-12-31T15:56:35.975Z,1.90
2022-12-31T16:01:37.705Z,2.47
2022-12-31T16:06:38.690Z,1.70
2022-12-31T16:11:40.528Z,1.40
2022-12-31T16:16:39.932Z,2.00
2022-12-31T16:21:39.701Z,1.73
2022-12-31T16:26:45.494Z,1.47
2022-12-31T16:31:46.793Z,1.67
2022-12-31T16:36:55.394Z,1.77
2022-12-31T16:41:54.512Z,1.30
2022-12-31T16:46:56.956Z,1.83
2022-12-31T16:52:01.538Z,2.13
2022-12-31T16:57:00.169Z,1.80
2022-12-31T17:02:02.648Z,1.60
2022-12-31T17:07:34.278Z,9.97
2022-12-31T17:13:00.681Z,1.50
2022-12-31T17:17:57.241Z,2.73
2022-12-31T17:22:59.015Z,2.43
2022-12-31T17:28:00.258Z,2.30
2022-12-31T17:33:02.285Z,2.40
2022-12-31T17:38:32.482Z,2.70
2022-12-31T17:43:35.171Z,2.10
2022-12-31T17:48:37.412Z,1.87
2022-12-31T17:53:35.975Z,2.27
2022-12-31T17:58:38.440Z,2.20
2022-12-31T18:03:37.848Z,2.57
2022-12-31T18:08:35.902Z,3.30
2022-12-31T18:13:33.964Z,2.63
2022-12-31T18:18:36.861Z,3.00
2022-12-31T18:23:40.504Z,1.80
2022-12-31T18:28:38.535Z,5.90
2022-12-31T18:33:36.569Z,2.60
2022-12-31T18:38:35.992Z,2.20
2022-12-31T18:43:34.045Z,1.80
2022-12-31T18:48:32.596Z,3.23
2022-12-31T18:53:30.636Z,2.80
2022-12-31T18:58:29.997Z,2.30
2022-12-31T19:03:28.259Z,3.30
2022-12-31T19:08:26.400Z,2.60
2022-12-31T19:13:24.424Z,4.20
2022-12-31T19:18:23.822Z,2.67
2022-12-31T19:23:22.449Z,3.10
2022-12-31T19:28:22.278Z,3.70
2022-12-31T19:33:20.898Z,2.87
2022-12-31T19:38:22.916Z,3.53
2022-12-31T19:43:22.617Z,2.73
2022-12-31T19:48:25.817Z,2.03
2022-12-31T19:53:29.848Z,2.57
2022-12-31T19:58:28.364Z,3.10
2022-12-31T20:03:26.863Z,3.07
2022-12-31T20:08:25.055Z,3.20
2022-12-31T20:13:24.531Z,3.97
2022-12-31T20:18:23.172Z,3.67
2022-12-31T20:23:21.241Z,3.87
2022-12-31T20:28:19.296Z,3.67
2022-12-31T20:33:19.301Z,3.70
2022-12-31T20:38:17.428Z,3.27
2022-12-31T20:43:15.556Z,3.60
2022-12-31T20:48:13.590Z,5.40
2022-12-31T20:53:13.001Z,4.10
2022-12-31T20:58:11.033Z,3.97
2022-12-31T21:03:24.054Z,5.00
2022-12-31T21:08:34.365Z,3.90
2022-12-31T21:13:32.957Z,4.07
2022-12-31T21:18:30.967Z,3.13
2022-12-31T21:23:30.362Z,3.50
2022-12-31T21:28:28.463Z,2.97
2022-12-31T21:33:26.660Z,3.60
2022-12-31T21:38:24.704Z,3.97
2022-12-31T21:43:24.129Z,3.37
2022-12-31T21:48:23.263Z,3.20
2022-12-31T21:53:26.163Z,4.00
2022-12-31T21:58:28.448Z,3.23
2022-12-31T22:03:27.436Z,3.40
2022-12-31T22:08:26.059Z,3.00
2022-12-31T22:13:24.503Z,2.87
2022-12-31T22:18:24.235Z,4.30
2022-12-31T22:23:22.261Z,7.30
2022-12-31T22:33:39.659Z,3.40
2022-12-31T22:38:37.913Z,3.60
2022-12-31T22:43:38.311Z,3.90
2022-12-31T22:48:36.364Z,4.43
2022-12-31T22:53:35.889Z,4.40
2022-12-31T22:58:33.923Z,4.20
2022-12-31T23:03:32.064Z,10.17
2022-12-31T23:08:30.208Z,34.70
2022-12-31T23:13:50.799Z,38.47
2022-12-31T23:19:06.640Z,46.43
2022-12-31T23:24:04.952Z,50.63
2022-12-31T23:29:04.355Z,52.23
2022-12-31T23:34:02.394Z,54.03
2022-12-31T23:39:00.451Z,73.13
2022-12-31T23:43:58.497Z,29.07
2022-12-31T23:48:57.923Z,18.23
2022-12-31T23:53:55.960Z,14.73
2022-12-31T23:58:55.354Z,13.03
